sensor_id;sensor_type;location;lat;lon;timestamp;temperature;humidity
9177;DHT22;4623;54.310;10.112;2022-11-25T00:01:37;5.90;99.90
9177;DHT22;4623;54.310;10.112;2022-11-25T00:04:03;5.80;99.90
9177;DHT22;4623;54.310;10.112;2022-11-25T00:06:31;5.80;99.90
9177;DHT22;4623;54.310;10.112;2022-11-25T00:08:59;5.80;99.90
9177;DHT22;4623;54.310;10.112;2022-11-25T00:11:25;5.90;99.90
9177;DHT22;4623;54.310;10.112;2022-11-25T00:13:51;5.80;99.90
9177;DHT22;4623;54.310;10.112;2022-11-25T00:16:19;5.80;99.90
9177;DHT22;4623;54.310;10.112;2022-11-25T00:18:49;5.80;99.90
9177;DHT22;4623;54.310;10.112;2022-11-25T00:21:20;5.70;99.90
9177;DHT22;4623;54.310;10.112;2022-11-25T00:23:54;5.70;99.90
9177;DHT22;4623;54.310;10.112;2022-11-25T00:26:20;5.80;99.90
9177;DHT22;4623;54.310;10.112;2022-11-25T00:28:46;5.70;99.90
9177;DHT22;4623;54.310;10.112;2022-11-25T00:31:14;5.70;99.90
9177;DHT22;4623;54.310;10.112;2022-11-25T00:33:40;5.70;99.90
9177;DHT22;4623;54.310;10.112;2022-11-25T00:36:12;5.70;99.90
9177;DHT22;4623;54.310;10.112;2022-11-25T00:38:39;5.70;99.90
9177;DHT22;4623;54.310;10.112;2022-11-25T00:41:04;5.80;99.90
9177;DHT22;4623;54.310;10.112;2022-11-25T00:43:48;5.70;99.90
9177;DHT22;4623;54.310;10.112;2022-11-25T00:46:32;5.80;99.90
9177;DHT22;4623;54.310;10.112;2022-11-25T00:48:58;5.80;99.90
9177;DHT22;4623;54.310;10.112;2022-11-25T00:51:23;5.70;99.90
9177;DHT22;4623;54.310;10.112;2022-11-25T00:53:49;5.80;99.90
9177;DHT22;4623;54.310;10.112;2022-11-25T00:56:14;5.80;99.90
9177;DHT22;4623;54.310;10.112;2022-11-25T00:58:41;5.80;99.90
9177;DHT22;4623;54.310;10.112;2022-11-25T01:01:07;5.80;99.90
9177;DHT22;4623;54.310;10.112;2022-11-25T01:03:33;5.80;99.90
9177;DHT22;4623;54.310;10.112;2022-11-25T01:06:02;5.80;99.90
9177;DHT22;4623;54.310;10.112;2022-11-25T01:08:29;5.80;99.90
9177;DHT22;4623;54.310;10.112;2022-11-25T01:11:03;5.70;99.90
9177;DHT22;4623;54.310;10.112;2022-11-25T01:13:29;5.70;99.90
9177;DHT22;4623;54.310;10.112;2022-11-25T01:15:54;5.70;99.90
9177;DHT22;4623;54.310;10.112;2022-11-25T01:18:20;5.80;99.90
9177;DHT22;4623;54.310;10.112;2022-11-25T01:20:45;5.70;99.90
9177;DHT22;4623;54.310;10.112;2022-11-25T01:23:11;5.80;99.90
9177;DHT22;4623;54.310;10.112;2022-11-25T01:25:37;5.80;99.90
9177;DHT22;4623;54.310;10.112;2022-11-25T01:28:03;5.90;99.90
9177;DHT22;4623;54.310;10.112;2022-11-25T01:30:28;5.80;99.90
9177;DHT22;4623;54.310;10.112;2022-11-25T01:32:54;5.80;99.90
9177;DHT22;4623;54.310;10.112;2022-11-25T01:35:19;5.80;99.90
9177;DHT22;4623;54.310;10.112;2022-11-25T01:37:45;5.80;99.90
9177;DHT22;4623;54.310;10.112;2022-11-25T01:40:10;5.80;99.90
9177;DHT22;4623;54.310;10.112;2022-11-25T01:42:42;5.80;99.90
9177;DHT22;4623;54.310;10.112;2022-11-25T01:45:30;5.70;99.90
9177;DHT22;4623;54.310;10.112;2022-11-25T01:48:01;5.70;99.90
9177;DHT22;4623;54.310;10.112;2022-11-25T01:50:29;5.70;99.90
9177;DHT22;4623;54.310;10.112;2022-11-25T01:52:56;5.70;99.90
9177;DHT22;4623;54.310;10.112;2022-11-25T01:55:30;5.60;99.90
9177;DHT22;4623;54.310;10.112;2022-11-25T01:58:19;5.60;99.90
9177;DHT22;4623;54.310;10.112;2022-11-25T02:00:45;5.70;99.90
9177;DHT22;4623;54.310;10.112;2022-11-25T02:03:20;5.70;99.90
9177;DHT22;4623;54.310;10.112;2022-11-25T02:08:22;5.70;99.90
9177;DHT22;4623;54.310;10.112;2022-11-25T02:10:48;5.70;99.90
9177;DHT22;4623;54.310;10.112;2022-11-25T02:13:15;5.70;99.90
9177;DHT22;4623;54.310;10.112;2022-11-25T02:15:41;5.70;99.90
9177;DHT22;4623;54.310;10.112;2022-11-25T02:18:06;5.70;99.90
9177;DHT22;4623;54.310;10.112;2022-11-25T02:20:32;5.70;99.90
9177;DHT22;4623;54.310;10.112;2022-11-25T02:23:18;5.60;99.90
9177;DHT22;4623;54.310;10.112;2022-11-25T02:25:44;5.70;99.90
9177;DHT22;4623;54.310;10.112;2022-11-25T02:28:22;5.60;99.90
9177;DHT22;4623;54.310;10.112;2022-11-25T02:30:48;5.70;99.90
9177;DHT22;4623;54.310;10.112;2022-11-25T02:33:15;5.60;99.90
9177;DHT22;4623;54.310;10.112;2022-11-25T02:35:54;5.70;99.90
9177;DHT22;4623;54.310;10.112;2022-11-25T02:43:26;5.70;99.90
9177;DHT22;4623;54.310;10.112;2022-11-25T02:48:30;5.70;99.90
9177;DHT22;4623;54.310;10.112;2022-11-25T02:50:55;5.70;99.90
9177;DHT22;4623;54.310;10.112;2022-11-25T02:53:21;5.70;99.90
9177;DHT22;4623;54.310;10.112;2022-11-25T02:55:47;5.70;99.90
9177;DHT22;4623;54.310;10.112;2022-11-25T02:58:12;5.60;99.90
9177;DHT22;4623;54.310;10.112;2022-11-25T03:00:39;5.60;99.90
9177;DHT22;4623;54.310;10.112;2022-11-25T03:03:05;5.60;99.90
9177;DHT22;4623;54.310;10.112;2022-11-25T03:05:31;5.60;99.90
9177;DHT22;4623;54.310;10.112;2022-11-25T03:07:56;5.60;99.90
9177;DHT22;4623;54.310;10.112;2022-11-25T03:10:22;5.60;99.90
9177;DHT22;4623;54.310;10.112;2022-11-25T03:12:48;5.70;99.90
9177;DHT22;4623;54.310;10.112;2022-11-25T03:15:13;5.80;99.90
9177;DHT22;4623;54.310;10.112;2022-11-25T03:17:39;5.70;99.90
9177;DHT22;4623;54.310;10.112;2022-11-25T03:20:06;5.70;99.90
9177;DHT22;4623;54.310;10.112;2022-11-25T03:22:32;5.80;99.90
9177;DHT22;4623;54.310;10.112;2022-11-25T03:24:57;5.70;99.90
9177;DHT22;4623;54.310;10.112;2022-11-25T03:27:23;5.70;99.90
9177;DHT22;4623;54.310;10.112;2022-11-25T03:29:49;5.60;99.90
9177;DHT22;4623;54.310;10.112;2022-11-25T03:32:14;5.60;99.90
9177;DHT22;4623;54.310;10.112;2022-11-25T03:34:40;5.60;99.90
9177;DHT22;4623;54.310;10.112;2022-11-25T03:37:06;5.60;99.90
9177;DHT22;4623;54.310;10.112;2022-11-25T03:39:32;5.60;99.90
9177;DHT22;4623;54.310;10.112;2022-11-25T03:41:57;5.50;99.90
9177;DHT22;4623;54.310;10.112;2022-11-25T03:44:22;5.50;99.90
9177;DHT22;4623;54.310;10.112;2022-11-25T03:46:48;5.50;99.90
9177;DHT22;4623;54.310;10.112;2022-11-25T03:49:13;5.40;99.90
9177;DHT22;4623;54.310;10.112;2022-11-25T03:51:39;5.40;99.90
9177;DHT22;4623;54.310;10.112;2022-11-25T03:54:04;5.40;99.90
9177;DHT22;4623;54.310;10.112;2022-11-25T03:56:30;5.40;99.90
9177;DHT22;4623;54.310;10.112;2022-11-25T03:58:55;5.30;99.90
9177;DHT22;4623;54.310;10.112;2022-11-25T04:01:21;5.30;99.90
9177;DHT22;4623;54.310;10.112;2022-11-25T04:03:46;5.20;99.90
9177;DHT22;4623;54.310;10.112;2022-11-25T04:06:12;5.20;99.90
9177;DHT22;4623;54.310;10.112;2022-11-25T04:08:37;5.20;99.90
9177;DHT22;4623;54.310;10.112;2022-11-25T04:11:03;5.30;99.90
9177;DHT22;4623;54.310;10.112;2022-11-25T04:13:28;5.30;99.90
9177;DHT22;4623;54.310;10.112;2022-11-25T04:15:54;5.30;99.90
9177;DHT22;4623;54.310;10.112;2022-11-25T04:18:20;5.30;99.90
9177;DHT22;4623;54.310;10.112;2022-11-25T04:20:46;5.20;99.90
9177;DHT22;4623;54.310;10.112;2022-11-25T04:23:12;5.20;99.90
9177;DHT22;4623;54.310;10.112;2022-11-25T04:25:38;5.30;99.90
9177;DHT22;4623;54.310;10.112;2022-11-25T04:28:04;5.30;99.90
9177;DHT22;4623;54.310;10.112;2022-11-25T04:30:30;5.30;99.90
9177;DHT22;4623;54.310;10.112;2022-11-25T04:32:56;5.30;99.90
9177;DHT22;4623;54.310;10.112;2022-11-25T04:35:21;5.20;99.90
9177;DHT22;4623;54.310;10.112;2022-11-25T04:37:47;5.20;99.90
9177;DHT22;4623;54.310;10.112;2022-11-25T04:40:12;5.20;99.90
9177;DHT22;4623;54.310;10.112;2022-11-25T04:42:38;5.20;99.90
9177;DHT22;4623;54.310;10.112;2022-11-25T04:45:16;5.20;99.90
9177;DHT22;4623;54.310;10.112;2022-11-25T04:47:42;5.20;99.90
9177;DHT22;4623;54.310;10.112;2022-11-25T04:50:14;5.10;99.90
9177;DHT22;4623;54.310;10.112;2022-11-25T04:52:40;5.10;99.90
9177;DHT22;4623;54.310;10.112;2022-11-25T04:55:06;5.10;99.90
9177;DHT22;4623;54.310;10.112;2022-11-25T04:57:31;5.10;99.90
9177;DHT22;4623;54.310;10.112;2022-11-25T04:59:57;5.00;99.90
9177;DHT22;4623;54.310;10.112;2022-11-25T05:02:24;5.00;99.90
9177;DHT22;4623;54.310;10.112;2022-11-25T05:04:53;5.10;99.90
9177;DHT22;4623;54.310;10.112;2022-11-25T05:07:20;5.10;99.90
9177;DHT22;4623;54.310;10.112;2022-11-25T05:09:46;5.00;99.90
9177;DHT22;4623;54.310;10.112;2022-11-25T05:12:17;5.00;99.90
9177;DHT22;4623;54.310;10.112;2022-11-25T05:14:44;5.00;99.90
9177;DHT22;4623;54.310;10.112;2022-11-25T05:17:13;5.00;99.90
9177;DHT22;4623;54.310;10.112;2022-11-25T05:19:39;5.00;99.90
9177;DHT22;4623;54.310;10.112;2022-11-25T05:22:04;5.00;99.90
9177;DHT22;4623;54.310;10.112;2022-11-25T05:24:30;5.10;99.90
9177;DHT22;4623;54.310;10.112;2022-11-25T05:26:56;5.10;99.90
9177;DHT22;4623;54.310;10.112;2022-11-25T05:29:21;5.10;99.90
9177;DHT22;4623;54.310;10.112;2022-11-25T05:31:47;5.20;99.90
9177;DHT22;4623;54.310;10.112;2022-11-25T05:34:12;5.30;99.90
9177;DHT22;4623;54.310;10.112;2022-11-25T05:36:38;5.20;99.90
9177;DHT22;4623;54.310;10.112;2022-11-25T05:39:03;5.10;99.90
9177;DHT22;4623;54.310;10.112;2022-11-25T05:41:29;5.20;99.90
9177;DHT22;4623;54.310;10.112;2022-11-25T05:43:54;5.20;99.90
9177;DHT22;4623;54.310;10.112;2022-11-25T05:46:21;5.20;99.90
9177;DHT22;4623;54.310;10.112;2022-11-25T05:48:46;5.20;99.90
9177;DHT22;4623;54.310;10.112;2022-11-25T05:51:12;5.20;99.90
9177;DHT22;4623;54.310;10.112;2022-11-25T05:53:37;5.20;99.90
9177;DHT22;4623;54.310;10.112;2022-11-25T05:56:05;5.30;99.90
9177;DHT22;4623;54.310;10.112;2022-11-25T05:58:32;5.30;99.90
9177;DHT22;4623;54.310;10.112;2022-11-25T06:00:58;5.20;99.90
9177;DHT22;4623;54.310;10.112;2022-11-25T06:03:24;5.20;99.90
9177;DHT22;4623;54.310;10.112;2022-11-25T06:05:50;5.20;99.90
9177;DHT22;4623;54.310;10.112;2022-11-25T06:08:16;5.20;99.90
9177;DHT22;4623;54.310;10.112;2022-11-25T06:10:42;5.10;99.90
9177;DHT22;4623;54.310;10.112;2022-11-25T06:13:08;5.20;99.90
9177;DHT22;4623;54.310;10.112;2022-11-25T06:15:34;5.20;99.90
9177;DHT22;4623;54.310;10.112;2022-11-25T06:17:59;5.20;99.90
9177;DHT22;4623;54.310;10.112;2022-11-25T06:20:25;5.20;99.90
9177;DHT22;4623;54.310;10.112;2022-11-25T06:22:51;5.10;99.90
9177;DHT22;4623;54.310;10.112;2022-11-25T06:25:17;5.20;99.90
9177;DHT22;4623;54.310;10.112;2022-11-25T06:27:43;5.20;99.90
9177;DHT22;4623;54.310;10.112;2022-11-25T06:30:09;5.30;99.90
9177;DHT22;4623;54.310;10.112;2022-11-25T06:32:34;5.30;99.90
9177;DHT22;4623;54.310;10.112;2022-11-25T06:35:00;5.40;99.90
9177;DHT22;4623;54.310;10.112;2022-11-25T06:37:25;5.30;99.90
9177;DHT22;4623;54.310;10.112;2022-11-25T06:39:51;5.40;99.90
9177;DHT22;4623;54.310;10.112;2022-11-25T06:42:16;5.50;99.90
9177;DHT22;4623;54.310;10.112;2022-11-25T06:44:42;5.50;99.90
9177;DHT22;4623;54.310;10.112;2022-11-25T06:47:07;5.50;99.90
9177;DHT22;4623;54.310;10.112;2022-11-25T06:49:33;5.50;99.90
9177;DHT22;4623;54.310;10.112;2022-11-25T06:51:59;5.50;99.90
9177;DHT22;4623;54.310;10.112;2022-11-25T06:54:24;5.60;99.90
9177;DHT22;4623;54.310;10.112;2022-11-25T06:56:50;5.60;99.90
9177;DHT22;4623;54.310;10.112;2022-11-25T06:59:19;5.70;99.90
9177;DHT22;4623;54.310;10.112;2022-11-25T07:01:45;5.70;99.90
9177;DHT22;4623;54.310;10.112;2022-11-25T07:04:10;5.70;99.90
9177;DHT22;4623;54.310;10.112;2022-11-25T07:06:36;5.70;99.90
9177;DHT22;4623;54.310;10.112;2022-11-25T07:09:03;5.60;99.90
9177;DHT22;4623;54.310;10.112;2022-11-25T07:11:33;5.70;99.90
9177;DHT22;4623;54.310;10.112;2022-11-25T07:14:02;5.60;99.90
9177;DHT22;4623;54.310;10.112;2022-11-25T07:16:28;5.60;99.90
9177;DHT22;4623;54.310;10.112;2022-11-25T07:18:54;5.60;99.90
9177;DHT22;4623;54.310;10.112;2022-11-25T07:21:22;5.60;99.90
9177;DHT22;4623;54.310;10.112;2022-11-25T07:23:49;5.60;99.90
9177;DHT22;4623;54.310;10.112;2022-11-25T07:26:18;5.70;99.90
9177;DHT22;4623;54.310;10.112;2022-11-25T07:28:44;5.70;99.90
9177;DHT22;4623;54.310;10.112;2022-11-25T07:31:23;5.70;99.90
9177;DHT22;4623;54.310;10.112;2022-11-25T07:33:57;5.70;99.90
9177;DHT22;4623;54.310;10.112;2022-11-25T07:36:24;5.80;99.90
9177;DHT22;4623;54.310;10.112;2022-11-25T07:38:50;5.80;99.90
9177;DHT22;4623;54.310;10.112;2022-11-25T07:41:18;5.70;99.90
9177;DHT22;4623;54.310;10.112;2022-11-25T07:43:49;5.70;99.90
9177;DHT22;4623;54.310;10.112;2022-11-25T07:48:51;5.80;99.90
9177;DHT22;4623;54.310;10.112;2022-11-25T07:51:31;5.80;99.90
9177;DHT22;4623;54.310;10.112;2022-11-25T07:53:59;5.90;99.90
9177;DHT22;4623;54.310;10.112;2022-11-25T07:56:25;5.90;99.90
9177;DHT22;4623;54.310;10.112;2022-11-25T07:58:51;5.80;99.90
9177;DHT22;4623;54.310;10.112;2022-11-25T08:01:18;5.90;99.90
9177;DHT22;4623;54.310;10.112;2022-11-25T08:03:45;6.00;99.90
9177;DHT22;4623;54.310;10.112;2022-11-25T08:06:14;6.00;99.90
9177;DHT22;4623;54.310;10.112;2022-11-25T08:08:41;6.20;99.90
9177;DHT22;4623;54.310;10.112;2022-11-25T08:11:08;6.40;99.90
9177;DHT22;4623;54.310;10.112;2022-11-25T08:13:34;6.50;99.90
9177;DHT22;4623;54.310;10.112;2022-11-25T08:16:00;6.40;99.90
9177;DHT22;4623;54.310;10.112;2022-11-25T08:18:26;6.20;99.90
9177;DHT22;4623;54.310;10.112;2022-11-25T08:20:58;6.20;99.90
9177;DHT22;4623;54.310;10.112;2022-11-25T08:23:24;6.10;99.90
9177;DHT22;4623;54.310;10.112;2022-11-25T08:25:50;6.10;99.90
9177;DHT22;4623;54.310;10.112;2022-11-25T08:28:15;6.10;99.90
9177;DHT22;4623;54.310;10.112;2022-11-25T08:30:40;6.00;99.90
9177;DHT22;4623;54.310;10.112;2022-11-25T08:33:06;6.00;99.90
9177;DHT22;4623;54.310;10.112;2022-11-25T08:35:32;5.90;99.90
9177;DHT22;4623;54.310;10.112;2022-11-25T08:38:06;5.80;99.90
9177;DHT22;4623;54.310;10.112;2022-11-25T08:40:33;5.80;99.90
9177;DHT22;4623;54.310;10.112;2022-11-25T08:42:58;5.80;99.90
9177;DHT22;4623;54.310;10.112;2022-11-25T08:45:24;5.80;99.90
9177;DHT22;4623;54.310;10.112;2022-11-25T08:47:49;5.80;99.90
9177;DHT22;4623;54.310;10.112;2022-11-25T08:50:15;5.80;99.90
9177;DHT22;4623;54.310;10.112;2022-11-25T08:52:41;5.80;99.90
9177;DHT22;4623;54.310;10.112;2022-11-25T08:55:07;5.80;99.90
9177;DHT22;4623;54.310;10.112;2022-11-25T08:57:33;5.90;99.90
9177;DHT22;4623;54.310;10.112;2022-11-25T08:59:58;5.80;99.90
9177;DHT22;4623;54.310;10.112;2022-11-25T09:02:24;5.90;99.90
9177;DHT22;4623;54.310;10.112;2022-11-25T09:04:50;5.90;99.90
9177;DHT22;4623;54.310;10.112;2022-11-25T09:07:15;6.00;99.90
9177;DHT22;4623;54.310;10.112;2022-11-25T09:09:41;5.90;99.90
9177;DHT22;4623;54.310;10.112;2022-11-25T09:12:07;5.90;99.90
9177;DHT22;4623;54.310;10.112;2022-11-25T09:14:33;6.00;99.90
9177;DHT22;4623;54.310;10.112;2022-11-25T09:16:58;5.90;99.90
9177;DHT22;4623;54.310;10.112;2022-11-25T09:19:26;5.90;99.90
9177;DHT22;4623;54.310;10.112;2022-11-25T09:21:51;6.00;99.90
9177;DHT22;4623;54.310;10.112;2022-11-25T09:24:17;6.00;99.90
9177;DHT22;4623;54.310;10.112;2022-11-25T09:26:43;6.00;99.90
9177;DHT22;4623;54.310;10.112;2022-11-25T09:29:10;6.10;99.90
9177;DHT22;4623;54.310;10.112;2022-11-25T09:31:36;6.10;99.90
9177;DHT22;4623;54.310;10.112;2022-11-25T09:34:01;6.10;99.90
9177;DHT22;4623;54.310;10.112;2022-11-25T09:36:27;6.20;99.90
9177;DHT22;4623;54.310;10.112;2022-11-25T09:38:54;6.30;99.90
9177;DHT22;4623;54.310;10.112;2022-11-25T09:45:05;6.30;99.90
9177;DHT22;4623;54.310;10.112;2022-11-25T09:48:18;6.50;99.90
9177;DHT22;4623;54.310;10.112;2022-11-25T09:51:20;6.70;99.90
9177;DHT22;4623;54.310;10.112;2022-11-25T09:53:53;6.70;99.90
9177;DHT22;4623;54.310;10.112;2022-11-25T09:56:31;6.80;99.90
9177;DHT22;4623;54.310;10.112;2022-11-25T10:01:43;6.80;99.90
9177;DHT22;4623;54.310;10.112;2022-11-25T10:04:20;6.70;99.90
9177;DHT22;4623;54.310;10.112;2022-11-25T10:06:52;6.70;99.90
9177;DHT22;4623;54.310;10.112;2022-11-25T10:09:24;6.70;99.90
9177;DHT22;4623;54.310;10.112;2022-11-25T10:12:02;6.70;99.90
9177;DHT22;4623;54.310;10.112;2022-11-25T10:14:45;6.70;99.90
9177;DHT22;4623;54.310;10.112;2022-11-25T10:19:54;6.70;99.90
9177;DHT22;4623;54.310;10.112;2022-11-25T10:22:27;6.80;99.90
9177;DHT22;4623;54.310;10.112;2022-11-25T10:25:01;6.70;99.90
9177;DHT22;4623;54.310;10.112;2022-11-25T10:27:40;6.70;99.90
9177;DHT22;4623;54.310;10.112;2022-11-25T10:30:53;6.70;99.90
9177;DHT22;4623;54.310;10.112;2022-11-25T10:33:31;6.70;99.90
9177;DHT22;4623;54.310;10.112;2022-11-25T10:36:20;6.80;99.90
9177;DHT22;4623;54.310;10.112;2022-11-25T10:39:25;6.80;99.90
9177;DHT22;4623;54.310;10.112;2022-11-25T10:42:01;6.70;99.90
9177;DHT22;4623;54.310;10.112;2022-11-25T10:44:32;6.70;99.90
9177;DHT22;4623;54.310;10.112;2022-11-25T10:49:37;6.80;99.90
9177;DHT22;4623;54.310;10.112;2022-11-25T10:52:10;6.80;99.90
9177;DHT22;4623;54.310;10.112;2022-11-25T10:54:36;6.70;99.90
9177;DHT22;4623;54.310;10.112;2022-11-25T10:57:03;6.70;99.90
9177;DHT22;4623;54.310;10.112;2022-11-25T10:59:32;6.70;99.90
9177;DHT22;4623;54.310;10.112;2022-11-25T11:02:22;6.70;99.90
9177;DHT22;4623;54.310;10.112;2022-11-25T11:07:38;6.80;99.90
9177;DHT22;4623;54.310;10.112;2022-11-25T11:15:28;6.80;99.90
9177;DHT22;4623;54.310;10.112;2022-11-25T11:17:57;6.80;99.90
9177;DHT22;4623;54.310;10.112;2022-11-25T11:20:24;6.80;99.90
9177;DHT22;4623;54.310;10.112;2022-11-25T11:23:04;6.80;99.90
9177;DHT22;4623;54.310;10.112;2022-11-25T11:25:34;6.80;99.90
9177;DHT22;4623;54.310;10.112;2022-11-25T11:28:01;6.80;99.90
9177;DHT22;4623;54.310;10.112;2022-11-25T11:30:30;6.90;99.90
9177;DHT22;4623;54.310;10.112;2022-11-25T11:33:05;6.90;99.90
9177;DHT22;4623;54.310;10.112;2022-11-25T11:38:30;6.90;99.90
9177;DHT22;4623;54.310;10.112;2022-11-25T11:41:19;6.90;99.90
9177;DHT22;4623;54.310;10.112;2022-11-25T11:44:17;7.00;99.90
9177;DHT22;4623;54.310;10.112;2022-11-25T11:50:02;7.00;99.90
9177;DHT22;4623;54.310;10.112;2022-11-25T12:01:31;7.00;99.90
9177;DHT22;4623;54.310;10.112;2022-11-25T12:04:07;7.00;99.90
9177;DHT22;4623;54.310;10.112;2022-11-25T12:06:37;7.00;99.90
9177;DHT22;4623;54.310;10.112;2022-11-25T12:09:12;7.00;99.90
9177;DHT22;4623;54.310;10.112;2022-11-25T12:11:43;7.00;99.90
9177;DHT22;4623;54.310;10.112;2022-11-25T12:14:32;7.10;99.90
9177;DHT22;4623;54.310;10.112;2022-11-25T12:17:02;7.10;99.90
9177;DHT22;4623;54.310;10.112;2022-11-25T12:19:51;7.10;99.90
9177;DHT22;4623;54.310;10.112;2022-11-25T12:22:29;7.10;99.90
9177;DHT22;4623;54.310;10.112;2022-11-25T12:25:15;7.10;99.90
9177;DHT22;4623;54.310;10.112;2022-11-25T12:27:46;7.20;99.90
9177;DHT22;4623;54.310;10.112;2022-11-25T12:30:18;7.20;99.90
9177;DHT22;4623;54.310;10.112;2022-11-25T12:37:52;7.30;99.90
9177;DHT22;4623;54.310;10.112;2022-11-25T12:42:48;7.40;99.90
9177;DHT22;4623;54.310;10.112;2022-11-25T12:45:20;7.50;99.90
9177;DHT22;4623;54.310;10.112;2022-11-25T12:47:46;7.50;99.90
9177;DHT22;4623;54.310;10.112;2022-11-25T12:50:18;7.50;99.90
9177;DHT22;4623;54.310;10.112;2022-11-25T12:52:59;7.60;99.90
9177;DHT22;4623;54.310;10.112;2022-11-25T12:55:26;7.60;99.90
9177;DHT22;4623;54.310;10.112;2022-11-25T13:07:06;7.60;99.90
9177;DHT22;4623;54.310;10.112;2022-11-25T13:09:45;7.60;99.90
9177;DHT22;4623;54.310;10.112;2022-11-25T13:17:47;7.70;99.90
9177;DHT22;4623;54.310;10.112;2022-11-25T13:25:37;7.80;99.90
9177;DHT22;4623;54.310;10.112;2022-11-25T13:28:32;7.90;99.90
9177;DHT22;4623;54.310;10.112;2022-11-25T13:36:21;7.90;99.90
9177;DHT22;4623;54.310;10.112;2022-11-25T13:48:56;8.10;99.90
9177;DHT22;4623;54.310;10.112;2022-11-25T13:51:22;8.10;99.90
9177;DHT22;4623;54.310;10.112;2022-11-25T13:54:15;8.20;99.90
9177;DHT22;4623;54.310;10.112;2022-11-25T13:56:42;8.10;99.90
9177;DHT22;4623;54.310;10.112;2022-11-25T14:01:52;8.10;99.90
9177;DHT22;4623;54.310;10.112;2022-11-25T14:04:25;8.10;99.90
9177;DHT22;4623;54.310;10.112;2022-11-25T14:07:25;8.10;99.90
9177;DHT22;4623;54.310;10.112;2022-11-25T14:10:02;8.10;99.90
9177;DHT22;4623;54.310;10.112;2022-11-25T14:26:26;8.20;99.90
9177;DHT22;4623;54.310;10.112;2022-11-25T14:29:45;8.20;99.90
9177;DHT22;4623;54.310;10.112;2022-11-25T14:31:45;8.20;99.90
9177;DHT22;4623;54.310;10.112;2022-11-25T14:34:33;8.20;99.90
9177;DHT22;4623;54.310;10.112;2022-11-25T14:37:11;8.20;99.90
9177;DHT22;4623;54.310;10.112;2022-11-25T14:39:48;8.30;99.90
9177;DHT22;4623;54.310;10.112;2022-11-25T14:42:17;8.30;99.90
9177;DHT22;4623;54.310;10.112;2022-11-25T14:44:51;8.40;99.90
9177;DHT22;4623;54.310;10.112;2022-11-25T14:47:30;8.60;99.90
9177;DHT22;4623;54.310;10.112;2022-11-25T14:50:00;8.60;99.90
9177;DHT22;4623;54.310;10.112;2022-11-25T14:52:31;8.50;99.90
9177;DHT22;4623;54.310;10.112;2022-11-25T14:54:59;8.50;99.90
9177;DHT22;4623;54.310;10.112;2022-11-25T14:57:29;8.50;99.90
9177;DHT22;4623;54.310;10.112;2022-11-25T15:00:02;8.50;99.90
9177;DHT22;4623;54.310;10.112;2022-11-25T15:02:31;8.50;99.90
9177;DHT22;4623;54.310;10.112;2022-11-25T15:05:13;8.50;99.90
9177;DHT22;4623;54.310;10.112;2022-11-25T15:07:41;8.50;99.90
9177;DHT22;4623;54.310;10.112;2022-11-25T15:10:29;8.40;99.90
9177;DHT22;4623;54.310;10.112;2022-11-25T15:12:54;8.40;99.90
9177;DHT22;4623;54.310;10.112;2022-11-25T15:15:20;8.40;99.90
9177;DHT22;4623;54.310;10.112;2022-11-25T15:17:45;8.40;99.90
9177;DHT22;4623;54.310;10.112;2022-11-25T15:20:13;8.40;99.90
9177;DHT22;4623;54.310;10.112;2022-11-25T15:22:45;8.40;99.90
9177;DHT22;4623;54.310;10.112;2022-11-25T15:25:14;8.40;99.90
9177;DHT22;4623;54.310;10.112;2022-11-25T15:27:49;8.40;99.90
9177;DHT22;4623;54.310;10.112;2022-11-25T15:30:27;8.40;99.90
9177;DHT22;4623;54.310;10.112;2022-11-25T15:32:54;8.40;99.90
9177;DHT22;4623;54.310;10.112;2022-11-25T15:35:25;8.50;99.90
9177;DHT22;4623;54.310;10.112;2022-11-25T15:37:51;8.50;99.90
9177;DHT22;4623;54.310;10.112;2022-11-25T15:40:39;8.50;99.90
9177;DHT22;4623;54.310;10.112;2022-11-25T15:43:20;8.50;99.90
9177;DHT22;4623;54.310;10.112;2022-11-25T15:45:49;8.50;99.90
9177;DHT22;4623;54.310;10.112;2022-11-25T15:48:29;8.50;99.90
9177;DHT22;4623;54.310;10.112;2022-11-25T15:51:05;8.50;99.90
9177;DHT22;4623;54.310;10.112;2022-11-25T15:53:32;8.50;99.90
9177;DHT22;4623;54.310;10.112;2022-11-25T15:56:03;8.60;99.90
9177;DHT22;4623;54.310;10.112;2022-11-25T15:58:29;8.60;99.90
9177;DHT22;4623;54.310;10.112;2022-11-25T16:00:59;8.70;99.90
9177;DHT22;4623;54.310;10.112;2022-11-25T16:03:25;8.70;99.90
9177;DHT22;4623;54.310;10.112;2022-11-25T16:05:55;8.70;99.90
9177;DHT22;4623;54.310;10.112;2022-11-25T16:08:30;8.70;99.90
9177;DHT22;4623;54.310;10.112;2022-11-25T16:10:58;8.70;99.90
9177;DHT22;4623;54.310;10.112;2022-11-25T16:13:32;8.70;99.90
9177;DHT22;4623;54.310;10.112;2022-11-25T16:16:09;8.70;99.90
9177;DHT22;4623;54.310;10.112;2022-11-25T16:21:14;8.70;99.90
9177;DHT22;4623;54.310;10.112;2022-11-25T16:23:49;8.70;99.90
9177;DHT22;4623;54.310;10.112;2022-11-25T16:26:21;8.70;99.90
9177;DHT22;4623;54.310;10.112;2022-11-25T16:28:51;8.70;99.90
9177;DHT22;4623;54.310;10.112;2022-11-25T16:31:17;8.70;99.90
9177;DHT22;4623;54.310;10.112;2022-11-25T16:33:43;8.70;99.90
9177;DHT22;4623;54.310;10.112;2022-11-25T16:36:08;8.70;99.90
9177;DHT22;4623;54.310;10.112;2022-11-25T16:38:34;8.70;99.90
9177;DHT22;4623;54.310;10.112;2022-11-25T16:41:07;8.70;99.90
9177;DHT22;4623;54.310;10.112;2022-11-25T16:43:34;8.70;99.90
9177;DHT22;4623;54.310;10.112;2022-11-25T16:46:03;8.80;99.90
9177;DHT22;4623;54.310;10.112;2022-11-25T16:48:28;8.80;99.90
9177;DHT22;4623;54.310;10.112;2022-11-25T16:50:54;8.80;99.90
9177;DHT22;4623;54.310;10.112;2022-11-25T16:53:19;8.80;99.90
9177;DHT22;4623;54.310;10.112;2022-11-25T16:55:45;8.80;99.90
9177;DHT22;4623;54.310;10.112;2022-11-25T16:58:22;8.80;99.90
9177;DHT22;4623;54.310;10.112;2022-11-25T17:00:55;8.80;99.90
9177;DHT22;4623;54.310;10.112;2022-11-25T17:03:22;8.80;99.90
9177;DHT22;4623;54.310;10.112;2022-11-25T17:05:51;8.80;99.90
9177;DHT22;4623;54.310;10.112;2022-11-25T17:08:17;8.90;99.90
9177;DHT22;4623;54.310;10.112;2022-11-25T17:10:43;8.90;99.90
9177;DHT22;4623;54.310;10.112;2022-11-25T17:13:20;8.90;99.90
9177;DHT22;4623;54.310;10.112;2022-11-25T17:15:47;8.90;99.90
9177;DHT22;4623;54.310;10.112;2022-11-25T17:18:15;8.90;99.90
9177;DHT22;4623;54.310;10.112;2022-11-25T17:20:42;8.80;99.90
9177;DHT22;4623;54.310;10.112;2022-11-25T17:23:13;8.90;99.90
9177;DHT22;4623;54.310;10.112;2022-11-25T17:25:39;8.90;99.90
9177;DHT22;4623;54.310;10.112;2022-11-25T17:28:05;8.90;99.90
9177;DHT22;4623;54.310;10.112;2022-11-25T17:30:39;8.90;99.90
9177;DHT22;4623;54.310;10.112;2022-11-25T17:33:06;8.90;99.90
9177;DHT22;4623;54.310;10.112;2022-11-25T17:35:36;8.90;99.90
9177;DHT22;4623;54.310;10.112;2022-11-25T17:38:12;8.90;99.90
9177;DHT22;4623;54.310;10.112;2022-11-25T17:40:39;8.90;99.90
9177;DHT22;4623;54.310;10.112;2022-11-25T17:43:05;8.80;99.90
9177;DHT22;4623;54.310;10.112;2022-11-25T17:45:33;8.80;99.90
9177;DHT22;4623;54.310;10.112;2022-11-25T17:47:58;8.70;99.90
9177;DHT22;4623;54.310;10.112;2022-11-25T17:50:25;8.70;99.90
9177;DHT22;4623;54.310;10.112;2022-11-25T17:52:51;8.70;99.90
9177;DHT22;4623;54.310;10.112;2022-11-25T17:55:18;8.80;99.90
9177;DHT22;4623;54.310;10.112;2022-11-25T17:57:46;8.80;99.90
9177;DHT22;4623;54.310;10.112;2022-11-25T18:00:14;8.80;99.90
9177;DHT22;4623;54.310;10.112;2022-11-25T18:02:40;8.80;99.90
9177;DHT22;4623;54.310;10.112;2022-11-25T18:05:18;8.80;99.90
9177;DHT22;4623;54.310;10.112;2022-11-25T18:07:45;8.70;99.90